Time;durP1;ratioP1;P1;durP2;ratioP2;P2;SDS_P1;SDS_P2;PMS_P1;PMS_P2;Temp;Humidity;BMP_temperature;BMP_pressure;BME280_temperature;BME280_humidity;BME280_pressure;Samples;Min_cycle;Max_cycle;Signal;HPM_P1;HPM_P2
2021/12/21 00:02:06;;;;;;;4.53;3.43;;;;;;;2.26;68.21;96269.97;4956686;28;20237;-82
2021/12/21 00:04:32;;;;;;;3.97;2.80;;;;;;;2.27;68.29;96275.84;4957006;28;20209;-82
2021/12/21 00:06:58;;;;;;;6.43;2.90;;;;;;;2.26;68.36;96272.50;4957655;29;20204;-82
2021/12/21 00:09:30;;;;;;;6.00;2.80;;;;;;;2.16;68.35;96270.69;4958526;28;20268;-82
2021/12/21 00:11:58;;;;;;;6.53;3.20;;;;;;;2.25;68.41;96275.97;4958030;28;20240;-82
2021/12/21 00:14:34;;;;;;;3.80;2.90;;;;;;;2.34;68.16;96272.75;4963478;28;20200;-82
2021/12/21 00:17:10;;;;;;;4.90;3.47;;;;;;;2.37;68.09;96270.00;4957634;29;20200;-82
2021/12/21 00:20:07;;;;;;;5.83;3.00;;;;;;;2.45;67.69;96266.09;4958669;28;20204;-82
2021/12/21 00:25:17;;;;;;;5.20;3.27;;;;;;;2.40;68.13;96268.97;4942563;29;20227;-82
2021/12/21 00:27:47;;;;;;;5.00;3.00;;;;;;;2.41;67.81;96265.50;4956957;28;20192;-82
2021/12/21 00:30:14;;;;;;;4.37;2.80;;;;;;;2.47;67.82;96265.06;4956948;29;20208;-82
2021/12/21 00:32:41;;;;;;;3.47;3.17;;;;;;;2.52;67.70;96263.00;4956432;28;20476;-82
2021/12/21 00:35:07;;;;;;;4.30;3.00;;;;;;;2.55;67.68;96261.97;4956703;28;20201;-82
2021/12/21 00:37:36;;;;;;;5.23;3.07;;;;;;;2.59;67.15;96259.09;4956175;28;20204;-82
2021/12/21 00:40:03;;;;;;;5.10;3.20;;;;;;;2.55;66.88;96254.34;4957015;29;20232;-82
2021/12/21 00:42:29;;;;;;;5.70;3.00;;;;;;;2.57;67.05;96252.50;4955388;28;20728;-82
2021/12/21 00:44:57;;;;;;;4.63;2.70;;;;;;;2.50;66.68;96251.34;4956184;28;20211;-82
2021/12/21 00:47:23;;;;;;;4.00;3.10;;;;;;;2.50;67.18;96248.81;4957064;29;20569;-82
2021/12/21 00:49:58;;;;;;;5.37;3.37;;;;;;;2.51;67.38;96250.38;4957456;28;20484;-82
2021/12/21 00:52:26;;;;;;;4.13;2.83;;;;;;;2.51;66.77;96248.66;4956570;28;20624;-82
2021/12/21 00:54:52;;;;;;;5.23;2.70;;;;;;;2.52;67.20;96236.75;4957243;29;20216;-82
2021/12/21 00:57:19;;;;;;;5.07;2.90;;;;;;;2.29;67.73;96235.91;4956813;29;20256;-82
2021/12/21 00:59:45;;;;;;;4.13;2.90;;;;;;;2.08;68.09;96233.16;4958091;28;20232;-82
2021/12/21 01:02:14;;;;;;;4.63;2.97;;;;;;;2.00;68.68;96237.94;4957039;28;21942;-82
2021/12/21 01:04:44;;;;;;;3.73;3.17;;;;;;;1.97;68.53;96233.91;4957980;29;20665;-82
2021/12/21 01:07:20;;;;;;;5.20;3.90;;;;;;;1.87;69.05;96232.13;4959818;28;20649;-82
2021/12/21 01:10:14;;;;;;;4.67;3.20;;;;;;;1.90;69.49;96234.44;4961594;28;20197;-82
2021/12/21 01:12:49;;;;;;;5.43;3.30;;;;;;;1.94;69.44;96225.69;4961441;28;20241;-82
2021/12/21 01:15:28;;;;;;;5.67;3.00;;;;;;;2.04;68.99;96219.84;4964018;28;20205;-81
2021/12/21 01:18:00;;;;;;;5.33;3.27;;;;;;;2.11;69.14;96227.06;4961327;29;20243;-82
2021/12/21 01:20:35;;;;;;;3.23;2.83;;;;;;;2.21;68.83;96218.66;4961589;28;20236;-82
2021/12/21 01:23:28;;;;;;;6.17;3.37;;;;;;;2.27;68.22;96218.22;4960202;28;20239;-82
2021/12/21 01:26:00;;;;;;;5.10;3.30;;;;;;;2.30;68.39;96217.19;4960794;29;20558;-82
2021/12/21 01:28:37;;;;;;;4.70;2.80;;;;;;;2.28;67.92;96214.78;4961124;29;20679;-82
2021/12/21 01:31:17;;;;;;;5.10;3.27;;;;;;;2.29;67.99;96224.00;4961500;29;20204;-82
2021/12/21 01:33:55;;;;;;;4.17;3.50;;;;;;;2.27;68.15;96213.16;4960447;28;20327;-82
2021/12/21 01:36:28;;;;;;;4.43;3.57;;;;;;;2.27;67.91;96204.72;4960821;29;20205;-82
2021/12/21 01:39:00;;;;;;;3.93;3.17;;;;;;;2.28;67.90;96204.59;4960824;28;20986;-82
2021/12/21 01:41:33;;;;;;;5.07;3.70;;;;;;;2.12;68.26;96198.19;4960488;28;20220;-81
2021/12/21 01:44:12;;;;;;;4.53;3.47;;;;;;;2.10;68.41;96200.03;4960567;28;20272;-82
2021/12/21 01:49:37;;;;;;;7.17;3.80;;;;;;;1.96;68.70;96203.53;4922406;29;20241;-82
2021/12/21 01:52:04;;;;;;;5.90;3.73;;;;;;;1.88;68.85;96201.56;4941289;28;20719;-82
2021/12/21 01:54:30;;;;;;;5.40;3.70;;;;;;;1.93;69.11;96196.13;4941429;29;20217;-82
2021/12/21 01:56:57;;;;;;;4.67;3.67;;;;;;;1.98;68.79;96189.00;4941888;29;20217;-83
2021/12/21 01:59:23;;;;;;;8.07;4.00;;;;;;;2.05;68.78;96190.19;4940745;29;20229;-82
2021/12/21 02:01:50;;;;;;;4.50;3.50;;;;;;;2.02;68.58;96190.41;4941132;28;20288;-82
2021/12/21 02:04:17;;;;;;;7.47;4.57;;;;;;;1.82;69.21;96191.00;4959399;29;20220;-82
2021/12/21 02:06:46;;;;;;;7.03;4.37;;;;;;;1.85;69.25;96189.06;4960424;28;20276;-82
2021/12/21 02:09:12;;;;;;;8.93;4.93;;;;;;;1.94;69.09;96185.06;4960140;28;20201;-82
2021/12/21 02:11:39;;;;;;;8.97;4.97;;;;;;;1.99;68.96;96171.13;4959507;28;20217;-82
2021/12/21 02:14:09;;;;;;;6.90;4.77;;;;;;;1.86;69.03;96172.09;4962189;28;20196;-82
2021/12/21 02:16:44;;;;;;;8.07;4.70;;;;;;;1.74;69.57;96169.50;4961045;28;20224;-82
2021/12/21 02:19:19;;;;;;;7.77;4.70;;;;;;;1.78;69.62;96157.41;4959386;29;20223;-82
2021/12/21 02:21:51;;;;;;;7.30;4.77;;;;;;;1.70;69.73;96164.78;4960111;28;20240;-82
2021/12/21 02:24:26;;;;;;;8.40;5.40;;;;;;;1.69;70.05;96158.06;4959326;28;20205;-82
2021/12/21 02:27:05;;;;;;;7.07;4.77;;;;;;;1.53;70.20;96165.94;4960866;29;20205;-82
2021/12/21 02:29:34;;;;;;;6.80;4.67;;;;;;;1.55;70.33;96160.75;4940857;29;20266;-82
2021/12/21 02:32:01;;;;;;;8.20;5.17;;;;;;;1.45;70.39;96157.25;4940516;28;20237;-82
2021/12/21 02:34:28;;;;;;;7.97;4.80;;;;;;;1.49;70.70;96154.38;4944795;29;20212;-82
2021/12/21 02:36:57;;;;;;;6.73;4.70;;;;;;;1.57;70.33;96159.72;4959870;29;20205;-82
2021/12/21 02:39:25;;;;;;;8.87;5.20;;;;;;;1.56;70.26;96155.56;4959030;28;20228;-82
2021/12/21 02:41:52;;;;;;;6.00;4.70;;;;;;;1.51;70.07;96156.81;4958988;28;20287;-82
2021/12/21 02:44:19;;;;;;;7.70;4.97;;;;;;;1.54;70.21;96154.84;4959125;28;20596;-82
2021/12/21 02:46:47;;;;;;;5.03;4.30;;;;;;;1.48;70.27;96152.78;4959266;29;20271;-82
2021/12/21 02:49:14;;;;;;;7.13;4.80;;;;;;;1.46;70.74;96154.59;4963806;28;20676;-82
2021/12/21 02:51:43;;;;;;;7.20;4.53;;;;;;;1.37;70.77;96155.22;4960812;28;20233;-82
2021/12/21 02:54:12;;;;;;;6.27;4.37;;;;;;;1.42;70.63;96153.19;4959524;29;20208;-82
2021/12/21 02:56:39;;;;;;;6.83;4.60;;;;;;;1.49;70.36;96151.03;4959267;29;20204;-82
2021/12/21 02:59:05;;;;;;;5.97;4.00;;;;;;;1.51;70.14;96155.09;4959267;28;20223;-82
2021/12/21 03:01:32;;;;;;;6.50;4.70;;;;;;;1.52;70.26;96155.91;4958374;28;20397;-82
2021/12/21 03:03:59;;;;;;;8.93;4.27;;;;;;;1.51;70.10;96150.03;4958518;28;20615;-82
2021/12/21 03:06:59;;;;;;;4.47;4.07;;;;;;;1.51;69.91;96150.03;4957872;28;20197;-82
2021/12/21 03:12:15;;;;;;;8.80;4.80;;;;;;;1.44;70.21;96151.34;4954224;28;20796;-81
2021/12/21 03:14:43;;;;;;;7.77;4.90;;;;;;;1.52;70.02;96148.28;4965625;28;20235;-82
2021/12/21 03:17:10;;;;;;;6.43;4.63;;;;;;;1.50;69.42;96150.94;4958528;28;20268;-82
2021/12/21 03:19:37;;;;;;;6.43;4.30;;;;;;;1.45;69.88;96157.25;4957645;29;20216;-82
2021/12/21 03:22:04;;;;;;;7.67;4.77;;;;;;;1.45;70.00;96144.56;4957057;28;20594;-82
2021/12/21 03:24:32;;;;;;;8.03;4.87;;;;;;;1.41;69.40;96148.22;4957239;28;20267;-82
2021/12/21 03:26:59;;;;;;;6.03;4.70;;;;;;;1.35;69.98;96140.09;4958111;28;20220;-82
2021/12/21 03:29:26;;;;;;;8.03;4.90;;;;;;;1.33;69.62;96151.31;4958094;28;20197;-82
2021/12/21 03:31:53;;;;;;;7.10;4.87;;;;;;;1.33;69.79;96152.13;4958197;28;20236;-82
2021/12/21 03:34:20;;;;;;;5.53;4.73;;;;;;;1.26;69.78;96147.56;4958629;28;20255;-82
2021/12/21 03:36:47;;;;;;;6.83;4.97;;;;;;;1.20;69.54;96153.84;4958073;29;20271;-82
2021/12/21 03:39:19;;;;;;;7.63;4.80;;;;;;;1.22;69.22;96146.94;4957483;28;20220;-81
2021/12/21 03:41:50;;;;;;;5.63;5.00;;;;;;;1.27;69.69;96156.78;4959001;28;20240;-82
2021/12/21 03:44:18;;;;;;;7.57;4.80;;;;;;;1.33;69.07;96151.31;4957580;28;20691;-82
2021/12/21 03:46:48;;;;;;;7.17;5.13;;;;;;;1.35;68.89;96142.66;4959063;28;20237;-82
2021/12/21 03:49:51;;;;;;;7.27;4.93;;;;;;;1.36;68.82;96139.19;4963410;28;20199;-82
2021/12/21 03:52:15;;;;;;;7.40;4.93;;;;;;;1.26;69.15;96139.94;4958617;28;20312;-82
2021/12/21 03:54:44;;;;;;;8.10;5.70;;;;;;;1.23;68.63;96140.16;4958427;29;20229;-82
2021/12/21 03:57:12;;;;;;;9.13;6.10;;;;;;;1.18;68.92;96137.94;4958405;29;20205;-82
2021/12/21 03:59:41;;;;;;;7.50;5.20;;;;;;;1.15;69.12;96134.81;4957897;28;20619;-83
2021/12/21 04:02:08;;;;;;;7.53;6.10;;;;;;;1.13;68.80;96136.66;4957917;28;20242;-82
2021/12/21 04:04:35;;;;;;;6.37;5.47;;;;;;;1.07;69.22;96135.34;4956146;29;20567;-82
2021/12/21 04:07:01;;;;;;;7.93;5.63;;;;;;;1.07;68.82;96132.78;4954976;28;20232;-82
2021/12/21 04:09:28;;;;;;;7.10;5.37;;;;;;;0.96;69.01;96130.97;4954250;28;20201;-82
2021/12/21 04:11:54;;;;;;;7.60;6.47;;;;;;;0.96;69.36;96132.72;4954899;28;20241;-82
2021/12/21 04:14:22;;;;;;;6.83;5.57;;;;;;;0.93;69.37;96127.88;4959972;28;20222;-82
2021/12/21 04:16:49;;;;;;;9.80;5.60;;;;;;;0.91;69.36;96127.97;4956202;28;20208;-82
2021/12/21 04:19:18;;;;;;;7.23;5.50;;;;;;;0.90;69.02;96128.06;4954696;29;20311;-82
2021/12/21 04:21:45;;;;;;;9.13;6.00;;;;;;;0.94;69.28;96130.28;4954222;28;20240;-82
2021/12/21 04:24:12;;;;;;;7.77;5.87;;;;;;;0.89;69.38;96127.25;4955985;29;20205;-82
2021/12/21 04:26:38;;;;;;;8.93;6.70;;;;;;;0.91;69.32;96130.50;4957274;29;20205;-81
2021/12/21 04:29:05;;;;;;;7.87;5.83;;;;;;;0.90;69.43;96136.47;4937910;29;20268;-81
2021/12/21 04:31:33;;;;;;;7.83;6.20;;;;;;;0.89;69.32;96137.41;4938037;28;20875;-81
2021/12/21 04:33:59;;;;;;;8.50;5.70;;;;;;;0.81;69.36;96134.56;4956971;29;20236;-82
2021/12/21 04:36:26;;;;;;;6.73;5.30;;;;;;;0.69;69.56;96137.91;4957253;29;20695;-82
2021/12/21 04:38:53;;;;;;;6.00;5.40;;;;;;;0.75;69.71;96134.97;4956694;29;20220;-82
2021/12/21 04:41:23;;;;;;;7.40;4.93;;;;;;;0.78;69.26;96142.34;4959298;28;20208;-82
2021/12/21 04:43:51;;;;;;;7.27;5.53;;;;;;;0.83;69.31;96139.53;4960350;28;20251;-81
2021/12/21 04:46:18;;;;;;;7.67;5.50;;;;;;;0.73;69.24;96131.75;4970703;28;20204;-81
2021/12/21 04:48:46;;;;;;;7.80;5.07;;;;;;;0.75;69.21;96126.56;4965302;28;20248;-81
2021/12/21 04:51:13;;;;;;;5.90;4.57;;;;;;;0.79;69.73;96131.31;4978410;28;20208;-82
2021/12/21 04:53:39;;;;;;;7.67;4.70;;;;;;;0.78;69.53;96132.22;4958681;28;20220;-82
2021/12/21 04:56:06;;;;;;;7.13;5.03;;;;;;;0.90;69.66;96136.47;4957119;28;20201;-82
2021/12/21 04:58:33;;;;;;;7.93;4.80;;;;;;;0.99;69.63;96137.56;4957047;28;20271;-82
2021/12/21 05:01:00;;;;;;;6.10;4.53;;;;;;;1.06;69.50;96140.50;4955791;29;20220;-81
2021/12/21 05:03:26;;;;;;;6.97;4.70;;;;;;;1.12;69.95;96140.91;4958589;28;20235;-82
2021/12/21 05:05:54;;;;;;;5.53;4.10;;;;;;;1.17;69.87;96136.31;4961656;28;20200;-81
2021/12/21 05:08:23;;;;;;;5.93;4.33;;;;;;;1.23;69.85;96137.63;4959042;28;20205;-81
2021/12/21 05:10:53;;;;;;;5.73;4.50;;;;;;;1.27;70.45;96136.50;4959509;28;20197;-81
2021/12/21 05:13:22;;;;;;;4.90;4.27;;;;;;;1.33;69.95;96133.53;4977913;28;20236;-81
2021/12/21 05:15:48;;;;;;;7.47;4.73;;;;;;;1.34;70.16;96138.50;4963344;28;20227;-81
2021/12/21 05:18:16;;;;;;;5.70;4.53;;;;;;;1.36;70.33;96138.38;4958198;29;20201;-81
2021/12/21 05:20:44;;;;;;;6.37;4.40;;;;;;;1.40;70.26;96137.25;4957522;29;20291;-81
2021/12/21 05:23:13;;;;;;;7.13;4.80;;;;;;;1.38;70.39;96139.09;4957800;28;20584;-81
2021/12/21 05:25:40;;;;;;;8.07;4.90;;;;;;;1.37;70.26;96140.00;4957199;28;20197;-81
2021/12/21 05:28:08;;;;;;;8.80;4.93;;;;;;;1.38;70.25;96136.56;4958869;28;20205;-81
2021/12/21 05:30:35;;;;;;;5.70;4.67;;;;;;;1.37;70.54;96140.81;4957590;29;20600;-81
2021/12/21 05:33:03;;;;;;;5.83;4.73;;;;;;;1.37;70.13;96134.94;4956509;28;20236;-81
2021/12/21 05:35:30;;;;;;;6.30;4.73;;;;;;;1.41;70.14;96149.03;4956674;29;20679;-81
2021/12/21 05:38:00;;;;;;;6.07;4.77;;;;;;;1.42;70.07;96148.09;4957849;29;20233;-81
2021/12/21 05:40:33;;;;;;;7.20;4.50;;;;;;;1.42;70.42;96153.19;4954405;28;20248;-81
2021/12/21 05:43:00;;;;;;;8.37;5.03;;;;;;;1.45;69.78;96149.63;4954249;28;20232;-81
2021/12/21 05:45:27;;;;;;;8.47;5.43;;;;;;;1.42;70.28;96149.84;4951879;28;20208;-81
2021/12/21 05:47:53;;;;;;;5.57;4.57;;;;;;;1.24;70.33;96150.19;4950993;28;20211;-81
2021/12/21 05:50:20;;;;;;;8.37;5.27;;;;;;;1.09;71.14;96150.44;4951742;28;20269;-81
2021/12/21 05:52:47;;;;;;;5.43;4.90;;;;;;;1.15;71.30;96152.56;4955172;28;20245;-81
2021/12/21 05:55:16;;;;;;;7.60;5.50;;;;;;;1.03;71.73;96144.88;4956326;28;20204;-80
2021/12/21 05:57:43;;;;;;;6.93;5.00;;;;;;;0.95;71.87;96147.13;4957548;28;20204;-81
2021/12/21 06:00:13;;;;;;;7.07;5.27;;;;;;;0.94;71.98;96148.03;4956347;28;20708;-81
2021/12/21 06:02:40;;;;;;;5.07;4.57;;;;;;;1.05;72.12;96147.28;4955503;28;20237;-81
2021/12/21 06:05:07;;;;;;;8.23;5.23;;;;;;;1.15;71.84;96152.56;4955393;28;20587;-81
2021/12/21 06:07:34;;;;;;;6.03;4.90;;;;;;;1.26;71.01;96150.91;4937441;29;20701;-81
2021/12/21 06:10:09;;;;;;;9.40;5.00;;;;;;;1.32;70.99;96157.28;4963709;28;20200;-82
2021/12/21 06:12:54;;;;;;;7.23;4.60;;;;;;;1.36;70.52;96161.22;4970880;28;20695;-82
2021/12/21 06:15:31;;;;;;;5.83;4.70;;;;;;;1.42;70.65;96149.84;4948306;29;20229;-82
2021/12/21 06:24:13;;;;;;;7.60;5.37;;;;;;;1.35;70.76;96160.41;4955159;28;20251;-81
2021/12/21 06:26:31;;;;;;;6.03;5.40;;;;;;;1.46;74.16;96161.41;4968760;28;20227;-81
2021/12/21 06:28:58;;;;;;;7.47;5.70;;;;;;;1.38;71.67;96156.84;4962884;28;20205;-81
2021/12/21 06:31:27;;;;;;;7.47;5.40;;;;;;;1.46;74.51;96159.66;4959241;28;20233;-81
2021/12/21 06:33:54;;;;;;;6.73;5.53;;;;;;;1.37;71.66;96156.03;4957620;29;20204;-81
2021/12/21 06:36:21;;;;;;;10.00;5.87;;;;;;;1.37;71.25;96160.28;4957243;28;20204;-81
2021/12/21 06:38:47;;;;;;;7.33;6.10;;;;;;;1.42;70.99;96163.34;4959772;28;20212;-82
2021/12/21 06:41:14;;;;;;;7.37;5.67;;;;;;;1.44;70.72;96161.50;4959831;28;20235;-81
2021/12/21 06:43:41;;;;;;;7.33;6.13;;;;;;;1.45;71.10;96152.16;4959042;28;20228;-82
2021/12/21 06:46:15;;;;;;;8.73;6.27;;;;;;;1.47;71.01;96152.88;4959204;28;20285;-80
2021/12/21 06:51:33;;;;;;;10.67;6.97;;;;;;;1.49;70.92;96151.84;4958850;28;20275;-81
2021/12/21 06:54:00;;;;;;;8.97;6.10;;;;;;;1.48;70.83;96152.78;4959209;29;20201;-81
2021/12/21 06:56:28;;;;;;;10.00;6.97;;;;;;;1.45;70.64;96158.06;4956978;28;20580;-82
2021/12/21 06:58:55;;;;;;;9.47;6.33;;;;;;;1.33;70.81;96164.00;4958604;28;20594;-81
2021/12/21 07:01:23;;;;;;;7.77;6.47;;;;;;;1.28;71.22;96163.47;4957147;28;20228;-81
2021/12/21 07:03:51;;;;;;;7.10;6.10;;;;;;;1.27;71.88;96162.66;4956769;28;20252;-81
2021/12/21 07:06:19;;;;;;;8.57;7.00;;;;;;;1.32;71.68;96164.91;4956892;28;20204;-81
2021/12/21 07:08:51;;;;;;;9.57;6.93;;;;;;;1.24;71.86;96162.88;4957816;28;20205;-81
2021/12/21 07:11:25;;;;;;;10.43;7.07;;;;;;;1.29;71.72;96153.22;4961086;28;20227;-82
2021/12/21 07:19:22;;;;;;;11.43;7.37;;;;;;;1.30;71.75;96162.47;4938484;29;20294;-82
2021/12/21 07:21:49;;;;;;;13.40;6.77;;;;;;;1.31;71.96;96159.00;4937781;28;20233;-82
2021/12/21 07:24:15;;;;;;;8.27;6.87;;;;;;;1.23;71.66;96162.97;4955513;28;20207;-81
2021/12/21 07:26:42;;;;;;;9.60;7.40;;;;;;;1.18;71.95;96158.22;4956795;28;20208;-81
2021/12/21 07:29:08;;;;;;;9.20;7.50;;;;;;;1.24;72.28;96157.00;4955536;28;20208;-81
2021/12/21 07:31:35;;;;;;;8.60;7.27;;;;;;;1.23;72.13;96152.84;4954611;28;20219;-81
2021/12/21 07:34:02;;;;;;;8.77;6.93;;;;;;;1.30;71.68;96169.25;4957629;28;20686;-82
2021/12/21 07:36:31;;;;;;;10.47;7.93;;;;;;;1.34;71.44;96163.06;4955425;28;20688;-81
2021/12/21 07:38:58;;;;;;;8.87;7.97;;;;;;;1.30;71.34;96162.47;4956093;28;20198;-82
2021/12/21 07:41:25;;;;;;;10.13;7.93;;;;;;;1.30;71.60;96162.47;4955546;28;20224;-82
2021/12/21 07:43:52;;;;;;;9.93;8.40;;;;;;;1.34;71.86;96155.47;4955029;29;20581;-81
2021/12/21 07:46:18;;;;;;;10.13;8.07;;;;;;;1.25;72.19;96158.63;4955549;28;20213;-81
2021/12/21 07:48:45;;;;;;;9.83;8.10;;;;;;;1.13;72.63;96157.75;4954409;28;20200;-82
2021/12/21 07:51:12;;;;;;;11.30;8.23;;;;;;;1.15;72.94;96161.00;4952703;28;20201;-81
2021/12/21 07:53:41;;;;;;;11.30;8.73;;;;;;;1.24;72.78;96154.47;4954523;28;20296;-81
2021/12/21 07:56:08;;;;;;;14.10;8.80;;;;;;;1.27;72.78;96154.25;4955606;29;20200;-81
2021/12/21 07:58:36;;;;;;;11.90;9.03;;;;;;;1.24;72.83;96149.38;4955057;28;20201;-82
2021/12/21 08:01:05;;;;;;;12.30;9.40;;;;;;;1.20;72.68;96147.97;4957789;28;20316;-81
2021/12/21 08:03:34;;;;;;;12.83;9.50;;;;;;;1.02;73.41;96147.50;4968149;28;20236;-82
2021/12/21 08:06:02;;;;;;;13.37;10.03;;;;;;;0.86;73.72;96147.72;4952388;28;20197;-81
2021/12/21 08:08:30;;;;;;;12.07;9.53;;;;;;;0.66;74.79;96138.13;4955196;28;20209;-81
2021/12/21 08:11:13;;;;;;;11.97;9.87;;;;;;;0.62;75.03;96144.28;4957529;28;20196;-82
2021/12/21 08:13:43;;;;;;;17.80;10.43;;;;;;;0.63;75.48;96151.81;4955183;28;20299;-82
2021/12/21 08:16:11;;;;;;;14.20;9.27;;;;;;;0.63;75.41;96153.53;4952881;28;20197;-81
2021/12/21 08:18:37;;;;;;;12.17;9.70;;;;;;;0.54;75.69;96149.88;4953615;28;20196;-81
2021/12/21 08:21:04;;;;;;;13.37;9.43;;;;;;;0.58;76.60;96153.81;4953128;28;20239;-82
2021/12/21 08:23:31;;;;;;;15.33;9.93;;;;;;;0.58;75.87;96158.88;4952809;28;20232;-81
2021/12/21 08:25:59;;;;;;;14.77;9.80;;;;;;;0.70;76.03;96157.28;4951554;28;20252;-82
2021/12/21 08:28:26;;;;;;;13.93;10.10;;;;;;;0.85;74.88;96152.91;4953656;28;20207;-81
2021/12/21 08:30:53;;;;;;;12.80;10.00;;;;;;;0.81;75.29;96149.75;4957239;28;20336;-82
2021/12/21 08:33:20;;;;;;;12.40;9.43;;;;;;;0.96;74.97;96163.94;4961200;28;20243;-81
2021/12/21 08:35:47;;;;;;;13.27;9.43;;;;;;;1.05;74.45;96165.03;4951200;28;20256;-81
2021/12/21 08:38:16;;;;;;;12.77;10.10;;;;;;;1.30;73.21;96164.19;4952025;29;20425;-81
2021/12/21 08:40:45;;;;;;;11.77;9.67;;;;;;;1.37;72.92;96166.19;4951971;28;20224;-82
2021/12/21 08:43:15;;;;;;;12.27;9.57;;;;;;;1.48;72.09;96167.19;4951771;28;20243;-81
2021/12/21 08:45:44;;;;;;;13.43;9.77;;;;;;;1.59;72.05;96165.50;4952752;28;20204;-81
2021/12/21 08:48:11;;;;;;;12.93;9.87;;;;;;;1.39;72.46;96176.22;4953771;29;20636;-81
2021/12/21 08:50:39;;;;;;;12.27;9.23;;;;;;;1.33;72.17;96166.53;4952560;28;20208;-81
2021/12/21 08:53:06;;;;;;;11.80;9.80;;;;;;;1.52;72.03;96171.94;4953273;28;20240;-81
2021/12/21 08:55:32;;;;;;;14.73;9.57;;;;;;;1.45;71.79;96180.88;4953685;28;20516;-82
2021/12/21 08:57:59;;;;;;;15.53;10.60;;;;;;;1.44;72.48;96173.38;4950465;29;20197;-82
2021/12/21 09:00:27;;;;;;;18.70;10.87;;;;;;;1.60;72.02;96169.66;4950176;28;20225;-81
2021/12/21 09:02:54;;;;;;;14.23;9.23;;;;;;;2.12;70.64;96167.72;4953028;28;20243;-82
2021/12/21 09:05:26;;;;;;;13.43;9.70;;;;;;;2.14;69.95;96164.13;4953650;28;20725;-82
2021/12/21 09:07:53;;;;;;;11.93;9.47;;;;;;;2.47;68.47;96163.41;4952800;28;20213;-82
2021/12/21 09:10:21;;;;;;;10.87;8.90;;;;;;;2.47;67.49;96155.78;4960572;28;20205;-81
2021/12/21 09:12:48;;;;;;;12.00;9.10;;;;;;;2.75;67.23;96160.44;4973359;28;20240;-82
2021/12/21 09:15:17;;;;;;;11.10;9.37;;;;;;;2.99;67.05;96155.25;4935507;29;20209;-82
2021/12/21 09:17:47;;;;;;;12.23;8.97;;;;;;;3.37;66.20;96154.06;4946629;29;20252;-81
2021/12/21 09:20:15;;;;;;;12.53;9.30;;;;;;;3.51;64.78;96156.34;4953516;28;20743;-82
2021/12/21 09:22:42;;;;;;;10.37;8.87;;;;;;;3.60;64.28;96154.84;4954154;28;20236;-82
2021/12/21 09:25:10;;;;;;;11.57;9.17;;;;;;;3.61;64.21;96153.91;4954492;28;20477;-82
2021/12/21 09:27:38;;;;;;;13.10;9.97;;;;;;;3.54;64.13;96153.56;4957356;28;20212;-81
2021/12/21 09:30:06;;;;;;;14.93;9.93;;;;;;;3.74;64.64;96152.81;4957859;28;20215;-81
2021/12/21 09:32:36;;;;;;;12.70;9.67;;;;;;;4.09;63.69;96159.41;4957524;28;20244;-81
2021/12/21 09:35:05;;;;;;;11.37;9.10;;;;;;;4.16;62.55;96147.81;4956500;28;20692;-81
2021/12/21 09:37:32;;;;;;;12.33;9.57;;;;;;;3.98;62.66;96150.09;4941432;28;20217;-81
2021/12/21 09:39:59;;;;;;;13.77;9.80;;;;;;;4.22;63.26;96149.06;4957191;28;20237;-81
2021/12/21 09:42:28;;;;;;;12.37;9.70;;;;;;;4.48;62.21;96147.72;4956524;28;20232;-81
2021/12/21 09:44:55;;;;;;;10.53;8.90;;;;;;;4.77;61.72;96140.25;4955155;28;20209;-81
2021/12/21 09:47:22;;;;;;;11.50;9.30;;;;;;;4.63;61.70;96148.22;4957332;28;20204;-81
2021/12/21 09:49:49;;;;;;;13.00;9.17;;;;;;;4.74;60.85;96133.66;4956766;28;20256;-81
2021/12/21 09:52:20;;;;;;;11.73;8.93;;;;;;;4.96;60.10;96136.97;4956503;28;20237;-81
2021/12/21 09:54:47;;;;;;;11.43;9.23;;;;;;;4.76;59.57;96138.63;4955321;28;20197;-81
2021/12/21 09:57:16;;;;;;;10.47;8.50;;;;;;;4.67;58.77;96142.75;4956910;28;20204;-81
2021/12/21 09:59:44;;;;;;;11.23;9.43;;;;;;;4.24;60.06;96142.88;4956122;29;20189;-81
2021/12/21 10:02:10;;;;;;;13.23;9.50;;;;;;;4.43;61.64;96144.75;4955755;28;20764;-81
2021/12/21 10:04:46;;;;;;;9.53;8.40;;;;;;;4.18;59.79;96142.59;4956523;28;20212;-81
2021/12/21 10:07:14;;;;;;;9.97;8.47;;;;;;;4.27;60.47;96141.81;4956531;28;20236;-81
2021/12/21 10:09:43;;;;;;;10.07;7.97;;;;;;;4.64;59.92;96137.91;4956480;29;20251;-81
2021/12/21 10:12:13;;;;;;;8.67;7.53;;;;;;;4.98;58.91;96135.94;4961306;28;20848;-81
2021/12/21 10:14:40;;;;;;;10.87;7.30;;;;;;;5.29;58.49;96139.25;4954492;29;20795;-81
2021/12/21 10:17:08;;;;;;;10.20;7.53;;;;;;;5.15;58.22;96126.84;4948036;28;20253;-81
2021/12/21 10:19:36;;;;;;;10.23;7.37;;;;;;;4.74;57.88;96126.00;4955157;28;20193;-81
2021/12/21 10:22:10;;;;;;;11.60;7.57;;;;;;;4.83;59.08;96125.22;4955089;28;20240;-81
2021/12/21 10:24:47;;;;;;;8.63;7.47;;;;;;;4.62;59.68;96123.69;4954314;29;20208;-81
2021/12/21 10:27:14;;;;;;;8.80;6.80;;;;;;;4.63;59.20;96120.16;4955621;29;20282;-81
2021/12/21 10:29:42;;;;;;;9.87;7.03;;;;;;;4.78;58.37;96121.47;4954826;28;20643;-81
2021/12/21 10:32:21;;;;;;;7.97;7.17;;;;;;;4.84;57.48;96115.84;4954511;28;20255;-81
2021/12/21 10:34:52;;;;;;;9.03;7.83;;;;;;;4.38;58.25;96119.66;4954305;28;20217;-81
2021/12/21 10:37:29;;;;;;;8.10;6.73;;;;;;;4.20;59.01;96122.88;4956437;29;20209;-81
2021/12/21 10:40:11;;;;;;;13.13;7.80;;;;;;;4.19;60.12;96114.44;4954141;28;20205;-81
2021/12/21 10:42:46;;;;;;;8.70;7.47;;;;;;;4.25;59.67;96116.47;4948785;28;20229;-81
2021/12/21 10:45:12;;;;;;;10.07;7.37;;;;;;;4.62;59.72;96108.38;4952869;28;20201;-81
2021/12/21 10:47:39;;;;;;;11.67;7.43;;;;;;;4.97;58.76;96113.09;4955150;28;20208;-81
2021/12/21 10:50:06;;;;;;;12.60;7.90;;;;;;;5.29;58.35;96112.91;4954732;28;20197;-81
2021/12/21 10:52:33;;;;;;;11.23;8.30;;;;;;;5.55;57.89;96119.16;4954743;28;20255;-81
2021/12/21 10:54:59;;;;;;;9.97;8.60;;;;;;;5.72;56.73;96118.50;4954612;29;20205;-81
2021/12/21 10:57:31;;;;;;;11.10;8.73;;;;;;;5.73;56.24;96109.09;4954805;29;20248;-81
2021/12/21 11:00:00;;;;;;;10.33;8.73;;;;;;;5.75;56.15;96112.31;4953697;28;20208;-81
2021/12/21 11:02:30;;;;;;;11.17;8.93;;;;;;;5.76;56.40;96109.63;4954359;28;20303;-81
2021/12/21 11:05:01;;;;;;;12.03;9.13;;;;;;;5.57;56.75;96114.72;4959643;28;20247;-81
2021/12/21 11:07:32;;;;;;;11.03;8.57;;;;;;;5.75;57.03;96112.31;4954008;28;20213;-81
2021/12/21 11:10:01;;;;;;;12.23;8.63;;;;;;;5.96;56.10;96109.66;4956712;28;20256;-81
2021/12/21 11:12:29;;;;;;;10.87;8.33;;;;;;;6.07;56.21;96104.41;4956969;28;20281;-81
2021/12/21 11:15:00;;;;;;;11.03;8.13;;;;;;;5.97;55.73;96109.50;4954527;28;20200;-81
2021/12/21 11:17:26;;;;;;;10.40;8.37;;;;;;;6.07;55.46;96101.84;4954637;29;20197;-81
2021/12/21 11:19:54;;;;;;;8.80;7.90;;;;;;;6.03;55.31;96085.97;4954984;28;20211;-81
2021/12/21 11:22:22;;;;;;;9.57;8.10;;;;;;;6.02;54.76;96084.34;4959380;28;20242;-81
2021/12/21 11:24:49;;;;;;;8.90;7.47;;;;;;;6.14;54.65;96085.84;4965499;28;20232;-81
2021/12/21 11:27:16;;;;;;;9.00;7.60;;;;;;;6.19;54.55;96078.53;4954959;29;20263;-81
2021/12/21 11:29:45;;;;;;;9.40;7.90;;;;;;;6.04;54.31;96079.09;4954875;28;20204;-81
2021/12/21 11:32:13;;;;;;;8.60;7.30;;;;;;;5.77;54.81;96090.78;4954304;28;20236;-81
2021/12/21 11:35:07;;;;;;;9.53;7.53;;;;;;;5.33;55.69;96088.72;4954441;28;20209;-81
2021/12/21 11:37:31;;;;;;;9.87;8.00;;;;;;;4.79;57.44;96092.47;4954074;28;20201;-81
2021/12/21 11:39:57;;;;;;;10.10;8.57;;;;;;;4.98;57.94;96086.63;4954468;28;20642;-81
2021/12/21 11:42:31;;;;;;;8.73;7.67;;;;;;;5.36;57.45;96076.50;4957631;28;20228;-81
2021/12/21 11:45:07;;;;;;;10.93;8.30;;;;;;;5.17;56.64;96081.59;4956814;29;20212;-81
2021/12/21 11:47:40;;;;;;;10.30;8.43;;;;;;;4.56;58.11;96073.97;4956069;28;20204;-81
2021/12/21 11:50:09;;;;;;;9.07;7.77;;;;;;;4.60;58.35;96074.53;4959324;28;20204;-81
2021/12/21 11:52:44;;;;;;;10.20;8.43;;;;;;;4.61;58.76;96071.88;4967110;28;20254;-81
2021/12/21 11:55:12;;;;;;;9.30;8.10;;;;;;;4.73;58.35;96070.84;4974613;28;20304;-81
2021/12/21 11:57:40;;;;;;;10.30;7.80;;;;;;;5.04;58.12;96069.03;4973540;28;20609;-81
2021/12/21 12:00:12;;;;;;;11.20;8.03;;;;;;;5.44;57.28;96065.63;4964408;28;20287;-81
2021/12/21 12:02:38;;;;;;;9.17;7.20;;;;;;;5.78;56.58;96064.28;4955200;28;20302;-81
2021/12/21 12:05:19;;;;;;;13.53;8.37;;;;;;;5.66;55.80;96067.13;4955136;28;20205;-81
2021/12/21 12:07:45;;;;;;;10.03;8.10;;;;;;;5.53;56.49;96069.94;4954277;28;20208;-81
2021/12/21 12:10:14;;;;;;;12.00;8.33;;;;;;;5.57;56.25;96067.94;4957736;28;20208;-81
2021/12/21 12:12:41;;;;;;;10.33;8.47;;;;;;;5.60;56.76;96065.91;4969132;28;20243;-81